createdAt,value
2018-10-03T00:00:55.714Z,30.30
2018-10-03T00:03:27.274Z,30.30
2018-10-03T00:05:58.583Z,30.30
2018-10-03T00:08:30.282Z,30.30
2018-10-03T00:11:02.591Z,30.40
2018-10-03T00:13:34.081Z,30.30
2018-10-03T00:16:05.283Z,30.30
2018-10-03T00:18:36.900Z,30.20
2018-10-03T00:21:08.251Z,30.30
2018-10-03T00:23:40.120Z,30.30
2018-10-03T00:26:11.204Z,30.20
2018-10-03T00:28:42.914Z,30.20
2018-10-03T00:31:14.475Z,30.30
2018-10-03T00:33:46.130Z,30.20
2018-10-03T00:36:17.602Z,30.20
2018-10-03T00:38:49.311Z,30.10
2018-10-03T00:41:20.674Z,30.10
2018-10-03T00:43:52.415Z,30.10
2018-10-03T00:46:23.963Z,30.10
2018-10-03T00:48:55.653Z,30.10
2018-10-03T00:51:27.038Z,30.10
2018-10-03T00:53:58.571Z,30.20
2018-10-03T00:56:30.220Z,30.10
2018-10-03T00:59:02.640Z,30.10
2018-10-03T01:01:33.898Z,30.00
2018-10-03T01:04:05.531Z,30.00
2018-10-03T01:06:36.779Z,30.00
2018-10-03T01:09:08.943Z,29.90
2018-10-03T01:11:42.846Z,30.00
2018-10-03T01:14:14.592Z,29.90
2018-10-03T01:16:46.086Z,30.00
2018-10-03T01:19:18.065Z,30.00
2018-10-03T01:21:49.514Z,29.90
2018-10-03T01:24:21.443Z,29.90
2018-10-03T01:26:52.917Z,29.90
2018-10-03T01:29:24.414Z,29.90
2018-10-03T01:31:55.819Z,29.90
2018-10-03T01:34:27.226Z,30.00
2018-10-03T01:36:58.614Z,29.90
2018-10-03T01:39:30.498Z,29.90
2018-10-03T01:42:02.360Z,29.80
2018-10-03T01:44:33.999Z,29.80
2018-10-03T01:47:05.860Z,29.80
2018-10-03T01:49:37.667Z,29.80
2018-10-03T01:52:09.109Z,29.80
2018-10-03T01:54:40.872Z,29.80
2018-10-03T01:57:12.218Z,29.80
2018-10-03T01:59:44.127Z,29.80
2018-10-03T02:02:15.285Z,29.70
2018-10-03T02:04:47.174Z,29.70
2018-10-03T02:07:18.628Z,29.60
2018-10-03T02:09:50.074Z,29.40
2018-10-03T02:12:22.350Z,29.40
2018-10-03T02:14:54.209Z,29.40
2018-10-03T02:17:25.583Z,29.40
2018-10-03T02:19:57.102Z,29.50
2018-10-03T02:22:28.469Z,29.40
2018-10-03T02:25:00.154Z,29.40
2018-10-03T02:27:31.527Z,29.40
2018-10-03T02:30:04.730Z,29.40
2018-10-03T02:32:36.391Z,29.40
2018-10-03T02:35:07.894Z,29.40
2018-10-03T02:37:39.288Z,29.40
2018-10-03T02:40:10.554Z,29.40
2018-10-03T02:42:41.894Z,29.50
2018-10-03T02:45:13.383Z,29.50
2018-10-03T02:47:44.722Z,29.60
2018-10-03T02:50:16.056Z,29.60
2018-10-03T02:52:47.673Z,29.60
2018-10-03T02:55:19.563Z,29.60
2018-10-03T02:57:50.761Z,29.70
2018-10-03T03:00:26.770Z,29.80
2018-10-03T03:02:58.162Z,29.90
2018-10-03T03:05:29.707Z,30.00
2018-10-03T03:08:00.986Z,30.10
2018-10-03T03:10:32.961Z,30.20
2018-10-03T03:13:07.447Z,30.40
2018-10-03T03:15:39.143Z,30.50
2018-10-03T03:18:11.080Z,30.70
2018-10-03T03:20:43.523Z,30.80
2018-10-03T03:23:15.213Z,31.00
2018-10-03T03:25:46.789Z,31.20
2018-10-03T03:28:18.299Z,31.40
2018-10-03T03:30:50.389Z,31.50
2018-10-03T03:33:21.656Z,31.70
2018-10-03T03:35:53.776Z,31.80
2018-10-03T03:38:25.159Z,32.00
2018-10-03T03:40:56.898Z,32.20
2018-10-03T03:43:28.282Z,32.30
2018-10-03T03:46:00.042Z,32.50
2018-10-03T03:48:31.885Z,32.60
2018-10-03T03:51:04.088Z,32.80
2018-10-03T03:53:35.505Z,33.70
2018-10-03T03:56:08.763Z,35.00
2018-10-03T03:58:40.368Z,36.00
2018-10-03T04:01:13.488Z,35.90
2018-10-03T04:03:45.353Z,35.20
2018-10-03T04:06:17.096Z,34.50
2018-10-03T04:08:48.259Z,34.30
2018-10-03T04:11:20.563Z,34.20
2018-10-03T04:13:53.273Z,34.20
2018-10-03T04:16:25.658Z,34.50
2018-10-03T04:18:56.994Z,34.50
2018-10-03T04:21:36.678Z,34.60
2018-10-03T04:24:09.411Z,34.80
2018-10-03T04:26:41.542Z,34.90
2018-10-03T04:29:12.690Z,34.90
2018-10-03T04:31:44.639Z,35.10
2018-10-03T04:34:15.803Z,35.40
2018-10-03T04:36:47.578Z,35.30
2018-10-03T04:39:19.651Z,35.40
2018-10-03T04:41:51.223Z,35.60
2018-10-03T04:44:22.487Z,35.80
2018-10-03T04:46:57.670Z,36.20
2018-10-03T04:49:29.085Z,37.20
2018-10-03T04:52:01.538Z,38.60
2018-10-03T04:54:32.767Z,39.40
2018-10-03T04:57:04.339Z,39.80
2018-10-03T04:59:35.730Z,39.70
2018-10-03T05:02:07.227Z,39.40
2018-10-03T05:04:38.776Z,39.30
2018-10-03T05:07:10.866Z,39.20
2018-10-03T05:09:43.167Z,38.80
2018-10-03T05:12:14.730Z,38.80
2018-10-03T05:14:46.631Z,39.00
2018-10-03T05:17:17.840Z,39.40
2018-10-03T05:19:48.903Z,40.30
2018-10-03T05:22:21.719Z,41.50
2018-10-03T05:24:53.010Z,42.50
2018-10-03T05:27:25.963Z,43.80
2018-10-03T05:29:57.355Z,43.90
2018-10-03T05:32:29.169Z,42.90
2018-10-03T05:35:01.487Z,42.10
2018-10-03T05:37:33.615Z,42.10
2018-10-03T05:40:05.491Z,42.00
2018-10-03T05:42:37.872Z,41.70
2018-10-03T05:45:10.146Z,41.60
2018-10-03T05:47:41.748Z,41.20
2018-10-03T05:50:13.382Z,40.90
2018-10-03T05:52:44.934Z,40.70
2018-10-03T05:55:16.284Z,40.30
2018-10-03T05:57:47.917Z,40.20
2018-10-03T06:00:20.856Z,40.10
2018-10-03T06:02:52.767Z,40.10
2018-10-03T06:05:24.235Z,40.20
2018-10-03T06:07:55.796Z,39.70
2018-10-03T06:10:27.444Z,39.50
2018-10-03T06:12:59.187Z,39.50
2018-10-03T06:15:31.871Z,39.30
2018-10-03T06:18:03.476Z,39.60
2018-10-03T06:20:34.562Z,39.70
2018-10-03T06:23:08.136Z,39.90
2018-10-03T06:25:39.682Z,40.20
2018-10-03T06:28:13.695Z,40.30
2018-10-03T06:30:45.183Z,40.40
2018-10-03T06:33:18.352Z,40.50
2018-10-03T06:35:49.855Z,40.80
2018-10-03T06:38:21.248Z,40.80
2018-10-03T06:40:52.674Z,41.00
2018-10-03T06:43:24.115Z,41.20
2018-10-03T06:45:55.340Z,41.60
2018-10-03T06:48:26.883Z,42.30
2018-10-03T06:50:58.530Z,43.90
2018-10-03T06:53:30.518Z,45.50
2018-10-03T06:56:03.672Z,45.80
2018-10-03T06:58:35.630Z,46.30
2018-10-03T07:01:08.633Z,46.90
2018-10-03T07:03:40.197Z,44.90
2018-10-03T07:06:11.604Z,44.60
2018-10-03T07:08:43.497Z,44.60
2018-10-03T07:11:14.798Z,44.50
2018-10-03T07:13:48.275Z,44.20
2018-10-03T07:16:20.920Z,43.40
2018-10-03T07:18:52.548Z,43.40
2018-10-03T07:21:23.795Z,43.10
2018-10-03T07:23:55.416Z,43.00
2018-10-03T07:26:26.874Z,42.20
2018-10-03T07:28:58.362Z,42.40
2018-10-03T07:31:29.790Z,42.30
2018-10-03T07:34:01.898Z,42.00
2018-10-03T07:36:33.544Z,41.80
2018-10-03T07:39:05.955Z,42.00
2018-10-03T07:41:37.507Z,42.00
2018-10-03T07:44:09.120Z,41.90
2018-10-03T07:46:40.736Z,41.90
2018-10-03T07:49:12.475Z,42.00
2018-10-03T07:51:43.812Z,42.00
2018-10-03T07:54:15.691Z,42.20
2018-10-03T07:56:46.735Z,42.00
2018-10-03T07:59:18.474Z,41.90
2018-10-03T08:01:49.968Z,41.60
2018-10-03T08:04:21.466Z,42.00
2018-10-03T08:06:52.827Z,42.30
2018-10-03T08:09:24.855Z,42.80
2018-10-03T08:11:55.954Z,43.80
2018-10-03T08:14:27.726Z,45.60
2018-10-03T08:17:00.407Z,47.00
2018-10-03T08:19:32.098Z,48.00
2018-10-03T08:22:03.475Z,47.00
2018-10-03T08:24:35.391Z,45.90
2018-10-03T08:27:06.766Z,44.80
2018-10-03T08:29:38.683Z,43.50
2018-10-03T08:32:10.068Z,42.90
2018-10-03T08:34:41.562Z,42.20
2018-10-03T08:37:12.898Z,41.80
2018-10-03T08:39:44.797Z,41.80
2018-10-03T08:42:16.455Z,41.60
2018-10-03T08:44:48.525Z,41.60
2018-10-03T08:47:19.950Z,41.40
2018-10-03T08:49:51.459Z,41.30
2018-10-03T08:52:22.772Z,41.20
2018-10-03T08:54:54.246Z,41.10
2018-10-03T08:57:25.987Z,41.00
2018-10-03T08:59:57.810Z,40.90
2018-10-03T09:02:29.001Z,41.10
2018-10-03T09:05:00.523Z,41.10
2018-10-03T09:07:31.608Z,40.80
2018-10-03T09:10:02.942Z,40.80
2018-10-03T09:12:34.000Z,40.90
2018-10-03T09:15:05.269Z,40.70
2018-10-03T09:17:37.357Z,40.70
2018-10-03T09:20:08.712Z,40.60
2018-10-03T09:22:39.775Z,40.60
2018-10-03T09:25:11.103Z,40.60
2018-10-03T09:27:42.123Z,40.60
2018-10-03T09:30:13.377Z,40.30
2018-10-03T09:32:44.442Z,40.20
2018-10-03T09:35:15.543Z,40.10
2018-10-03T09:37:46.718Z,40.20
2018-10-03T09:40:18.049Z,40.20
2018-10-03T09:42:49.023Z,40.20
2018-10-03T09:45:20.255Z,39.80
2018-10-03T09:47:51.238Z,39.70
2018-10-03T09:50:22.512Z,39.60
2018-10-03T09:52:53.495Z,39.60
2018-10-03T09:55:25.007Z,39.60
2018-10-03T09:57:56.111Z,39.30
2018-10-03T10:00:32.289Z,39.20
2018-10-03T10:03:03.460Z,39.10
2018-10-03T10:05:34.700Z,39.10
2018-10-03T10:08:06.026Z,39.00
2018-10-03T10:10:37.272Z,39.20
2018-10-03T10:13:08.158Z,39.30
2018-10-03T10:15:39.629Z,39.20
2018-10-03T10:18:11.654Z,39.20
2018-10-03T10:20:43.032Z,39.10
2018-10-03T10:23:13.963Z,38.70
2018-10-03T10:25:45.707Z,38.90
2018-10-03T10:28:16.723Z,38.90
2018-10-03T10:30:47.979Z,38.60
2018-10-03T10:33:18.846Z,38.70
2018-10-03T10:35:50.530Z,38.60
2018-10-03T10:38:21.508Z,38.60
2018-10-03T10:40:53.124Z,38.70
2018-10-03T10:43:24.398Z,38.30
2018-10-03T10:45:55.851Z,38.10
2018-10-03T10:48:27.012Z,37.80
2018-10-03T10:50:58.511Z,38.10
2018-10-03T10:53:29.503Z,38.10
2018-10-03T10:56:00.795Z,38.10
2018-10-03T10:58:31.695Z,38.20
2018-10-03T11:01:03.191Z,38.10
2018-10-03T11:03:34.188Z,38.00
2018-10-03T11:06:05.412Z,38.00
2018-10-03T11:08:36.543Z,37.80
2018-10-03T11:11:08.019Z,37.80
2018-10-03T11:13:38.935Z,37.60
2018-10-03T11:16:10.442Z,37.70
2018-10-03T11:18:42.599Z,37.60
2018-10-03T11:21:13.861Z,37.70
2018-10-03T11:23:44.957Z,37.70
2018-10-03T11:26:16.592Z,37.50
2018-10-03T11:28:47.632Z,37.30
2018-10-03T11:31:18.831Z,37.00
2018-10-03T11:33:49.902Z,37.20
2018-10-03T11:36:21.862Z,37.10
2018-10-03T11:38:52.914Z,37.20
2018-10-03T11:41:24.065Z,37.00
2018-10-03T11:43:55.087Z,36.90
2018-10-03T11:46:26.259Z,36.90
2018-10-03T11:48:57.290Z,36.90
2018-10-03T11:51:28.816Z,36.90
2018-10-03T11:53:59.955Z,36.80
2018-10-03T11:56:31.433Z,37.00
2018-10-03T11:59:02.622Z,36.70
2018-10-03T12:01:34.078Z,36.60
2018-10-03T12:04:05.016Z,36.60
2018-10-03T12:06:36.269Z,36.60
2018-10-03T12:09:10.267Z,36.60
2018-10-03T12:11:42.222Z,36.60
2018-10-03T12:14:13.218Z,36.60
2018-10-03T12:16:44.602Z,36.70
2018-10-03T12:19:16.650Z,36.70
2018-10-03T12:21:48.092Z,36.60
2018-10-03T12:24:21.463Z,36.40
2018-10-03T12:26:52.914Z,36.40
2018-10-03T12:29:25.131Z,36.30
2018-10-03T12:31:57.983Z,36.20
2018-10-03T12:34:29.646Z,36.20
2018-10-03T12:37:01.550Z,36.20
2018-10-03T12:39:32.503Z,36.10
2018-10-03T12:42:03.917Z,36.00
2018-10-03T12:44:38.104Z,36.00
2018-10-03T12:47:09.493Z,36.00
2018-10-03T12:49:40.633Z,35.80
2018-10-03T12:52:11.989Z,35.70
2018-10-03T12:54:43.018Z,35.70
2018-10-03T12:57:14.346Z,35.70
2018-10-03T12:59:45.287Z,35.70
2018-10-03T13:02:16.618Z,35.70
2018-10-03T13:04:47.632Z,35.70
2018-10-03T13:07:19.265Z,35.70
2018-10-03T13:09:50.223Z,35.70
2018-10-03T13:12:21.422Z,35.50
2018-10-03T13:14:52.283Z,35.40
2018-10-03T13:17:23.531Z,35.40
2018-10-03T13:19:55.806Z,35.30
2018-10-03T13:22:27.057Z,35.30
2018-10-03T13:24:58.013Z,35.30
2018-10-03T13:27:29.109Z,35.30
2018-10-03T13:30:00.298Z,35.30
2018-10-03T13:32:31.847Z,35.30
2018-10-03T13:35:02.978Z,35.30
2018-10-03T13:37:34.621Z,35.20
2018-10-03T13:40:07.282Z,35.10
2018-10-03T13:42:38.551Z,34.90
2018-10-03T13:45:09.602Z,34.80
2018-10-03T13:47:41.206Z,34.90
2018-10-03T13:50:12.281Z,34.80
2018-10-03T13:52:43.467Z,34.70
2018-10-03T13:55:14.490Z,34.70
2018-10-03T13:57:45.662Z,34.60
2018-10-03T14:00:16.525Z,34.60
2018-10-03T14:02:47.650Z,34.40
2018-10-03T14:05:18.537Z,34.40
2018-10-03T14:07:49.729Z,34.40
2018-10-03T14:10:20.798Z,34.40
2018-10-03T14:12:52.265Z,34.40
2018-10-03T14:15:23.431Z,34.30
2018-10-03T14:17:54.621Z,34.30
2018-10-03T14:20:28.021Z,34.20
2018-10-03T14:22:59.262Z,34.20
2018-10-03T14:25:30.257Z,34.20
2018-10-03T14:28:01.822Z,34.10
2018-10-03T14:30:32.956Z,34.10
2018-10-03T14:33:04.478Z,34.10
2018-10-03T14:35:36.450Z,34.10
2018-10-03T14:38:08.029Z,34.00
2018-10-03T14:40:39.035Z,33.90
2018-10-03T14:43:10.150Z,33.90
2018-10-03T14:45:42.793Z,34.00
2018-10-03T14:48:14.030Z,33.90
2018-10-03T14:50:45.076Z,33.90
2018-10-03T14:53:16.388Z,33.90
2018-10-03T14:55:47.426Z,33.90
2018-10-03T14:58:19.010Z,33.90
2018-10-03T15:00:50.146Z,33.90
2018-10-03T15:03:21.494Z,33.90
2018-10-03T15:05:52.672Z,33.80
2018-10-03T15:08:23.894Z,33.80
2018-10-03T15:10:54.821Z,33.90
2018-10-03T15:13:25.817Z,33.80
2018-10-03T15:15:56.787Z,33.80
2018-10-03T15:18:27.987Z,33.80
2018-10-03T15:21:00.039Z,33.70
2018-10-03T15:23:31.249Z,33.70
2018-10-03T15:26:02.144Z,33.70
2018-10-03T15:28:33.535Z,33.70
2018-10-03T15:31:05.838Z,33.70
2018-10-03T15:33:37.231Z,33.80
2018-10-03T15:36:08.272Z,33.70
2018-10-03T15:38:39.253Z,33.70
2018-10-03T15:41:10.314Z,33.60
2018-10-03T15:43:41.634Z,33.60
2018-10-03T15:46:12.554Z,33.60
2018-10-03T15:48:43.803Z,33.50
2018-10-03T15:51:14.702Z,33.50
2018-10-03T15:53:45.959Z,33.60
2018-10-03T15:56:16.850Z,33.50
2018-10-03T15:58:48.495Z,33.50
2018-10-03T16:01:19.541Z,33.50
2018-10-03T16:03:50.862Z,33.50
2018-10-03T16:06:21.868Z,33.60
2018-10-03T16:08:52.985Z,33.50
2018-10-03T16:11:24.098Z,33.50
2018-10-03T16:13:55.303Z,33.40
2018-10-03T16:16:26.119Z,33.40
2018-10-03T16:18:57.413Z,33.40
2018-10-03T16:21:28.959Z,33.40
2018-10-03T16:24:00.577Z,33.30
2018-10-03T16:26:31.599Z,33.30
2018-10-03T16:29:03.175Z,33.30
2018-10-03T16:31:34.205Z,33.40
2018-10-03T16:34:05.468Z,33.20
2018-10-03T16:36:36.366Z,33.20
2018-10-03T16:39:09.092Z,33.20
2018-10-03T16:41:40.328Z,33.30
2018-10-03T16:44:11.815Z,33.20
2018-10-03T16:46:42.719Z,33.30
2018-10-03T16:49:13.854Z,33.30
2018-10-03T16:51:48.009Z,33.20
2018-10-03T16:54:19.476Z,33.30
2018-10-03T16:56:50.481Z,33.20
2018-10-03T16:59:21.749Z,33.20
2018-10-03T17:04:27.511Z,33.20
2018-10-03T17:06:58.454Z,33.30
2018-10-03T17:09:29.704Z,33.30
2018-10-03T17:12:09.461Z,33.20
2018-10-03T17:14:41.241Z,33.20
2018-10-03T17:17:12.305Z,33.20
2018-10-03T17:19:45.240Z,33.20
2018-10-03T17:22:20.802Z,33.20
2018-10-03T17:24:53.499Z,33.10
2018-10-03T17:27:24.621Z,33.00
2018-10-03T17:29:56.304Z,33.10
2018-10-03T17:32:32.362Z,33.00
2018-10-03T17:35:09.197Z,33.00
2018-10-03T17:37:39.976Z,33.00
2018-10-03T17:40:11.326Z,33.00
2018-10-03T17:42:45.248Z,33.00
2018-10-03T17:45:22.809Z,32.90
2018-10-03T17:47:54.281Z,32.90
2018-10-03T17:50:26.513Z,32.90
2018-10-03T17:52:57.577Z,32.90
2018-10-03T17:55:28.825Z,32.90
2018-10-03T17:57:59.970Z,32.90
2018-10-03T18:00:31.069Z,32.90
2018-10-03T18:03:01.901Z,32.80
2018-10-03T18:05:33.209Z,32.80
2018-10-03T18:08:04.650Z,32.90
2018-10-03T18:10:35.884Z,32.90
2018-10-03T18:13:06.969Z,32.90
2018-10-03T18:15:38.871Z,32.90
2018-10-03T18:18:09.778Z,32.90
2018-10-03T18:20:41.086Z,32.90
2018-10-03T18:23:13.879Z,32.90
2018-10-03T18:25:45.178Z,32.90
2018-10-03T18:28:16.295Z,32.80
2018-10-03T18:30:47.618Z,32.80
2018-10-03T18:33:18.487Z,32.80
2018-10-03T18:35:49.790Z,32.80
2018-10-03T18:38:20.945Z,32.70
2018-10-03T18:40:52.213Z,32.70
2018-10-03T18:43:25.524Z,32.70
2018-10-03T18:45:56.672Z,32.70
2018-10-03T18:48:28.094Z,32.70
2018-10-03T18:51:02.641Z,32.70
2018-10-03T18:53:33.681Z,32.60
2018-10-03T18:56:05.118Z,32.60
2018-10-03T18:58:36.231Z,32.60
2018-10-03T19:01:07.626Z,32.60
2018-10-03T19:03:38.643Z,32.60
2018-10-03T19:06:10.033Z,32.50
2018-10-03T19:08:41.049Z,32.50
2018-10-03T19:11:12.238Z,32.60
2018-10-03T19:13:43.191Z,32.50
2018-10-03T19:16:14.874Z,32.60
2018-10-03T19:18:45.854Z,32.60
2018-10-03T19:21:16.962Z,32.60
2018-10-03T19:23:48.849Z,32.60
2018-10-03T19:26:20.127Z,32.60
2018-10-03T19:28:51.144Z,32.60
2018-10-03T19:31:22.503Z,32.60
2018-10-03T19:33:53.634Z,32.50
2018-10-03T19:36:25.050Z,32.50
2018-10-03T19:38:55.938Z,32.50
2018-10-03T19:41:27.222Z,32.50
2018-10-03T19:43:58.119Z,32.50
2018-10-03T19:46:29.097Z,32.40
2018-10-03T19:49:00.038Z,32.40
2018-10-03T19:51:31.230Z,32.40
2018-10-03T19:54:02.158Z,32.40
2018-10-03T19:56:33.533Z,32.30
2018-10-03T19:59:04.456Z,32.30
2018-10-03T20:01:35.570Z,32.30
2018-10-03T20:04:08.383Z,32.20
2018-10-03T20:06:39.726Z,32.10
2018-10-03T20:09:10.997Z,32.00
2018-10-03T20:11:42.312Z,32.10
2018-10-03T20:14:13.269Z,32.10
2018-10-03T20:16:44.607Z,32.10
2018-10-03T20:19:15.617Z,32.00
2018-10-03T20:21:46.963Z,32.00
2018-10-03T20:24:19.653Z,32.00
2018-10-03T20:26:50.727Z,31.90
2018-10-03T20:29:21.786Z,32.00
2018-10-03T20:31:53.017Z,32.00
2018-10-03T20:34:24.058Z,31.90
2018-10-03T20:36:55.405Z,31.90
2018-10-03T20:39:26.413Z,32.00
2018-10-03T20:41:57.575Z,31.90
2018-10-03T20:44:28.570Z,31.90
2018-10-03T20:46:59.543Z,31.90
2018-10-03T20:49:30.622Z,31.80
2018-10-03T20:52:01.874Z,31.80
2018-10-03T20:54:32.812Z,31.80
2018-10-03T20:57:04.342Z,31.90
2018-10-03T20:59:35.309Z,31.90
2018-10-03T21:02:09.342Z,31.90
2018-10-03T21:04:40.362Z,31.90
2018-10-03T21:07:11.621Z,31.90
2018-10-03T21:09:42.563Z,31.90
2018-10-03T21:12:13.906Z,31.90
2018-10-03T21:14:44.935Z,31.80
2018-10-03T21:17:16.611Z,31.90
2018-10-03T21:19:47.544Z,31.80
2018-10-03T21:22:18.821Z,31.80
2018-10-03T21:24:50.993Z,31.70
2018-10-03T21:27:22.570Z,31.80
2018-10-03T21:29:53.647Z,31.70
2018-10-03T21:32:25.026Z,31.70
2018-10-03T21:34:56.113Z,31.70
2018-10-03T21:37:27.674Z,31.70
2018-10-03T21:39:58.750Z,31.70
2018-10-03T21:42:30.029Z,31.70
2018-10-03T21:45:00.909Z,31.60
2018-10-03T21:47:32.397Z,31.60
2018-10-03T21:50:03.349Z,31.60
2018-10-03T21:52:34.642Z,31.60
2018-10-03T21:55:05.674Z,31.60
2018-10-03T21:57:37.034Z,31.50
2018-10-03T22:00:09.499Z,31.50
2018-10-03T22:02:40.817Z,31.60
2018-10-03T22:05:11.778Z,31.60
2018-10-03T22:07:43.349Z,31.50
2018-10-03T22:10:14.383Z,31.50
2018-10-03T22:12:45.652Z,31.40
2018-10-03T22:15:16.732Z,31.50
2018-10-03T22:17:47.937Z,31.50
2018-10-03T22:20:18.990Z,31.40
2018-10-03T22:22:50.592Z,31.40
2018-10-03T22:25:23.361Z,31.40
2018-10-03T22:27:54.606Z,31.40
2018-10-03T22:30:25.656Z,31.40
2018-10-03T22:32:56.946Z,31.30
2018-10-03T22:35:27.762Z,31.40
2018-10-03T22:37:59.022Z,31.30
2018-10-03T22:40:29.913Z,31.30
2018-10-03T22:43:01.611Z,31.30
2018-10-03T22:45:32.562Z,31.20
2018-10-03T22:48:03.834Z,31.20
2018-10-03T22:50:35.029Z,31.20
2018-10-03T22:53:06.145Z,31.20
2018-10-03T22:55:37.199Z,31.20
2018-10-03T22:58:08.538Z,31.20
2018-10-03T23:00:39.389Z,31.10
2018-10-03T23:03:10.958Z,31.10
2018-10-03T23:05:42.110Z,31.00
2018-10-03T23:08:13.440Z,31.00
2018-10-03T23:10:44.407Z,30.90
2018-10-03T23:13:15.577Z,30.90
2018-10-03T23:15:46.478Z,30.90
2018-10-03T23:18:18.040Z,30.90
2018-10-03T23:20:49.016Z,30.90
2018-10-03T23:23:20.138Z,30.90
2018-10-03T23:25:52.062Z,30.90
2018-10-03T23:28:23.742Z,30.90
2018-10-03T23:30:54.734Z,30.90
2018-10-03T23:33:25.986Z,30.90
2018-10-03T23:35:57.001Z,30.80
2018-10-03T23:38:28.369Z,30.90
2018-10-03T23:40:59.255Z,30.80
2018-10-03T23:43:30.413Z,30.70
2018-10-03T23:46:01.522Z,30.50
2018-10-03T23:48:32.787Z,30.50
2018-10-03T23:51:03.737Z,30.40
2018-10-03T23:53:34.985Z,30.30
2018-10-03T23:56:06.022Z,30.20
2018-10-03T23:58:37.540Z,30.20
